Terminal Aerodrome Forecast
Issued by NWS

Home | Current Version | Previous Version | Text Only | Print | Product List | Glossary On
Versions: 1 2 3 4 5 6 7 8 9 10 11 12 13 14 15 16 17 18
635
FTUS46 KEKA 262333
TAFCEC
TAF
KCEC 262333Z 2700/2724 27007KT P6SM BKN015 OVC020
     FM270400 18005KT 6SM -DZ BR SCT005 BKN010 OVC020
     FM271500 VRB03KT 5SM -SHRA BR BKN015 OVC050=

USA.gov is the U.S. government's official web portal to all federal, state and local government web resources and services.